createdAt,value
2022-08-27T00:00:20.481Z,99.99
2022-08-27T00:01:20.501Z,99.99
2022-08-27T00:02:21.108Z,99.99
2022-08-27T00:03:21.470Z,99.99
2022-08-27T00:04:22.498Z,99.99
2022-08-27T00:05:22.587Z,99.99
2022-08-27T00:06:24.239Z,99.99
2022-08-27T00:07:24.747Z,99.99
2022-08-27T00:08:24.947Z,99.99
2022-08-27T00:09:32.334Z,99.99
2022-08-27T00:10:26.839Z,99.99
2022-08-27T00:11:27.626Z,99.99
2022-08-27T00:12:28.127Z,99.99
2022-08-27T00:13:29.051Z,99.99
2022-08-27T00:14:29.546Z,99.99
2022-08-27T00:15:29.875Z,99.99
2022-08-27T00:16:30.571Z,99.99
2022-08-27T00:17:31.439Z,99.99
2022-08-27T00:18:31.359Z,99.99
2022-08-27T00:19:32.250Z,99.99
2022-08-27T00:20:32.873Z,99.99
2022-08-27T00:21:33.849Z,99.99
2022-08-27T00:22:34.748Z,99.99
2022-08-27T00:23:35.399Z,99.99
2022-08-27T00:24:36.069Z,99.99
2022-08-27T00:25:36.905Z,99.99
2022-08-27T00:26:41.400Z,99.99
2022-08-27T00:27:38.035Z,99.99
2022-08-27T00:28:38.227Z,99.99
2022-08-27T00:29:38.717Z,99.99
2022-08-27T00:30:39.038Z,99.99
2022-08-27T00:31:39.669Z,99.99
2022-08-27T00:32:39.771Z,99.99
2022-08-27T00:33:40.425Z,99.99
2022-08-27T00:34:40.626Z,99.99
2022-08-27T00:35:41.243Z,99.99
2022-08-27T00:36:41.864Z,99.99
2022-08-27T00:37:42.762Z,99.99
2022-08-27T00:38:43.970Z,99.99
2022-08-27T00:39:44.568Z,99.99
2022-08-27T00:40:44.929Z,99.99
2022-08-27T00:41:45.936Z,99.99
2022-08-27T00:42:46.194Z,99.99
2022-08-27T00:43:47.144Z,99.99
2022-08-27T00:44:47.340Z,99.99
2022-08-27T00:45:47.804Z,99.99
2022-08-27T00:46:47.922Z,99.99
2022-08-27T00:47:48.540Z,99.99
2022-08-27T00:48:49.759Z,99.99
2022-08-27T00:49:49.973Z,99.99
2022-08-27T00:50:50.915Z,99.99
2022-08-27T00:51:54.877Z,99.99
2022-08-27T00:52:52.211Z,99.99
2022-08-27T00:53:52.539Z,99.99
2022-08-27T00:54:53.452Z,99.99
2022-08-27T00:55:54.366Z,99.99
2022-08-27T00:56:57.038Z,99.99
2022-08-27T00:57:56.235Z,99.99
2022-08-27T00:58:57.035Z,99.99
2022-08-27T00:59:57.931Z,99.99
2022-08-27T01:00:58.217Z,99.99
2022-08-27T01:01:58.774Z,99.99
2022-08-27T01:02:59.272Z,99.99
2022-08-27T01:03:59.182Z,99.99
2022-08-27T01:05:00.128Z,99.99
2022-08-27T01:06:01.051Z,99.99
2022-08-27T01:07:01.214Z,99.99
2022-08-27T01:08:01.703Z,99.99
2022-08-27T01:09:02.403Z,99.99
2022-08-27T01:10:03.024Z,99.99
2022-08-27T01:11:03.604Z,99.99
2022-08-27T01:12:03.412Z,99.99
2022-08-27T01:13:03.491Z,99.99
2022-08-27T01:14:06.118Z,99.99
2022-08-27T01:15:04.310Z,99.99
2022-08-27T01:16:04.801Z,99.99
2022-08-27T01:17:05.568Z,99.99
2022-08-27T01:18:06.073Z,99.99
2022-08-27T01:19:06.392Z,99.99
2022-08-27T01:20:06.588Z,99.99
2022-08-27T01:21:09.300Z,99.99
2022-08-27T01:22:08.005Z,99.99
2022-08-27T01:23:08.951Z,99.99
2022-08-27T01:24:09.867Z,99.99
2022-08-27T01:25:10.359Z,99.99
2022-08-27T01:26:10.553Z,99.99
2022-08-27T01:27:18.721Z,99.99
2022-08-27T01:28:11.570Z,99.99
2022-08-27T01:29:11.815Z,99.99
2022-08-27T01:30:11.735Z,99.99
2022-08-27T01:31:13.035Z,99.99
2022-08-27T01:32:13.038Z,99.99
2022-08-27T01:33:13.654Z,99.99
2022-08-27T01:34:14.083Z,99.99
2022-08-27T01:35:14.727Z,99.99
2022-08-27T01:36:15.643Z,99.99
2022-08-27T01:37:15.838Z,99.99
2022-08-27T01:38:35.192Z,99.99
2022-08-27T01:39:18.352Z,99.99
2022-08-27T01:40:21.884Z,99.99
2022-08-27T01:41:18.140Z,99.99
2022-08-27T01:42:18.942Z,99.99
2022-08-27T01:43:19.138Z,99.99
2022-08-27T01:44:22.398Z,99.99
2022-08-27T01:45:20.316Z,99.99
2022-08-27T01:46:21.015Z,99.99
2022-08-27T01:47:21.760Z,99.99
2022-08-27T01:48:22.145Z,99.99
2022-08-27T01:49:22.761Z,99.99
2022-08-27T01:50:23.706Z,99.99
2022-08-27T01:51:24.626Z,99.99
2022-08-27T01:52:24.879Z,99.99
2022-08-27T01:53:25.827Z,99.99
2022-08-27T01:54:26.020Z,99.99
2022-08-27T01:55:26.393Z,99.99
2022-08-27T01:56:26.606Z,99.99
2022-08-27T01:57:31.572Z,99.99
2022-08-27T01:58:27.774Z,99.99
2022-08-27T01:59:44.507Z,99.99
2022-08-27T02:00:29.125Z,99.99
2022-08-27T02:01:29.855Z,99.99
2022-08-27T02:02:30.927Z,99.99
2022-08-27T02:03:31.856Z,99.99
2022-08-27T02:04:32.345Z,99.99
2022-08-27T02:05:32.541Z,99.99
2022-08-27T02:06:32.658Z,99.99
2022-08-27T02:07:32.877Z,99.99
2022-08-27T02:08:33.801Z,99.99
2022-08-27T02:09:34.025Z,99.99
2022-08-27T02:10:34.522Z,99.99
2022-08-27T02:11:34.715Z,99.99
2022-08-27T02:12:35.111Z,99.99
2022-08-27T02:13:35.453Z,99.99
2022-08-27T02:14:36.379Z,99.99
2022-08-27T02:15:36.592Z,99.99
2022-08-27T02:16:38.397Z,99.99
2022-08-27T02:17:38.297Z,99.99
2022-08-27T02:18:41.618Z,99.99
2022-08-27T02:19:39.756Z,99.99
2022-08-27T02:20:39.654Z,99.99
2022-08-27T02:21:40.576Z,99.99
2022-08-27T02:22:41.303Z,99.99
2022-08-27T02:23:41.988Z,99.99
2022-08-27T02:24:42.905Z,99.99
2022-08-27T02:25:42.979Z,99.99
2022-08-27T02:26:43.604Z,99.99
2022-08-27T02:27:43.947Z,99.99
2022-08-27T02:28:44.593Z,99.99
2022-08-27T02:29:46.674Z,99.99
2022-08-27T02:30:45.892Z,99.99
2022-08-27T02:31:46.255Z,99.99
2022-08-27T02:32:46.405Z,99.99
2022-08-27T02:33:48.602Z,99.99
2022-08-27T02:34:48.227Z,99.99
2022-08-27T02:35:48.150Z,99.99
2022-08-27T02:36:48.854Z,99.99
2022-08-27T02:37:49.490Z,99.99
2022-08-27T02:38:49.690Z,99.99
2022-08-27T02:39:51.674Z,99.99
2022-08-27T02:40:51.130Z,99.99
2022-08-27T02:41:51.708Z,99.99
2022-08-27T02:42:51.857Z,99.99
2022-08-27T02:43:55.204Z,99.99
2022-08-27T02:44:53.491Z,99.99
2022-08-27T02:45:53.984Z,99.99
2022-08-27T02:46:59.001Z,99.99
2022-08-27T02:47:55.991Z,99.99
2022-08-27T02:48:56.275Z,99.99
2022-08-27T02:49:56.215Z,99.99
2022-08-27T02:50:57.120Z,99.99
2022-08-27T02:51:57.831Z,99.99
2022-08-27T02:52:58.335Z,99.99
2022-08-27T02:53:58.470Z,99.99
2022-08-27T02:54:59.487Z,99.99
2022-08-27T02:55:58.778Z,99.99
2022-08-27T02:56:59.968Z,99.99
2022-08-27T02:58:00.164Z,99.99
2022-08-27T02:59:00.466Z,99.99
2022-08-27T03:00:01.389Z,99.99
2022-08-27T03:01:01.725Z,99.99
2022-08-27T03:02:01.868Z,99.99
2022-08-27T03:03:02.869Z,99.99
2022-08-27T03:04:03.475Z,99.99
2022-08-27T03:05:03.975Z,99.99
2022-08-27T03:06:04.167Z,99.99
2022-08-27T03:07:04.806Z,99.99
2022-08-27T03:08:05.008Z,99.99
2022-08-27T03:09:05.806Z,99.99
2022-08-27T03:10:06.024Z,99.99
2022-08-27T03:11:07.230Z,99.99
2022-08-27T03:12:07.722Z,99.99
2022-08-27T03:13:08.733Z,99.99
2022-08-27T03:14:08.665Z,99.99
2022-08-27T03:15:09.579Z,99.99
2022-08-27T03:16:10.660Z,99.99
2022-08-27T03:17:11.146Z,99.99
2022-08-27T03:18:12.383Z,99.99
2022-08-27T03:19:13.077Z,99.99
2022-08-27T03:20:14.185Z,99.99
2022-08-27T03:21:14.798Z,99.99
2022-08-27T03:22:16.017Z,99.99
2022-08-27T03:23:16.727Z,99.99
2022-08-27T03:24:20.324Z,99.99
2022-08-27T03:25:17.778Z,99.99
2022-08-27T03:26:18.002Z,99.99
2022-08-27T03:27:18.621Z,99.99
2022-08-27T03:28:28.819Z,99.99
2022-08-27T03:29:19.466Z,99.99
2022-08-27T03:30:20.567Z,99.99
2022-08-27T03:31:21.662Z,99.99
2022-08-27T03:32:21.770Z,99.99
2022-08-27T03:33:21.752Z,99.99
2022-08-27T03:34:25.221Z,99.99
2022-08-27T03:35:23.568Z,99.99
2022-08-27T03:36:24.338Z,99.99
2022-08-27T03:37:25.340Z,99.99
2022-08-27T03:38:25.980Z,99.99
2022-08-27T03:39:26.895Z,99.99
2022-08-27T03:40:27.364Z,99.99
2022-08-27T03:41:55.116Z,99.99
2022-08-27T03:42:29.011Z,99.99
2022-08-27T03:43:30.015Z,99.99
2022-08-27T03:44:30.615Z,99.99
2022-08-27T03:45:31.608Z,99.99
2022-08-27T03:46:32.176Z,99.99
2022-08-27T03:47:32.921Z,99.99
2022-08-27T03:48:33.839Z,99.99
2022-08-27T03:49:34.332Z,99.99
2022-08-27T03:50:35.227Z,99.99
2022-08-27T03:51:36.125Z,99.99
2022-08-27T03:52:36.621Z,99.99
2022-08-27T03:53:37.347Z,99.99
2022-08-27T03:54:38.268Z,99.99
2022-08-27T03:55:38.487Z,99.99
2022-08-27T03:56:38.988Z,99.99
2022-08-27T03:57:39.902Z,99.99
2022-08-27T03:58:40.095Z,99.99
2022-08-27T03:59:41.036Z,99.99
2022-08-27T04:00:41.457Z,99.99
2022-08-27T04:01:42.518Z,99.99
2022-08-27T04:02:42.911Z,99.99
2022-08-27T04:03:44.165Z,99.99
2022-08-27T04:04:44.782Z,99.99
2022-08-27T04:05:45.697Z,99.99
2022-08-27T04:06:45.912Z,99.99
2022-08-27T04:07:46.152Z,99.99
2022-08-27T04:08:46.640Z,99.99
2022-08-27T04:09:47.277Z,99.99
2022-08-27T04:10:48.474Z,99.99
2022-08-27T04:11:49.098Z,99.99
2022-08-27T04:12:50.012Z,99.99
2022-08-27T04:13:50.716Z,99.99
2022-08-27T04:14:51.916Z,99.99
2022-08-27T04:15:52.922Z,99.99
2022-08-27T04:16:56.070Z,99.99
2022-08-27T04:17:54.113Z,99.99
2022-08-27T04:18:54.609Z,99.99
2022-08-27T04:19:55.103Z,99.99
2022-08-27T04:20:55.011Z,99.99
2022-08-27T04:21:55.928Z,99.99
2022-08-27T04:22:56.419Z,99.99
2022-08-27T04:23:58.882Z,99.99
2022-08-27T04:30:02.403Z,99.99
2022-08-27T04:31:01.479Z,99.99
2022-08-27T04:32:01.443Z,99.99
2022-08-27T04:33:02.368Z,99.99
2022-08-27T04:34:02.619Z,99.99
2022-08-27T04:35:02.847Z,99.99
2022-08-27T04:36:03.456Z,99.99
2022-08-27T04:37:04.375Z,99.99
2022-08-27T04:38:05.246Z,99.99
2022-08-27T04:39:05.462Z,99.99
2022-08-27T04:40:06.265Z,99.99
2022-08-27T04:41:06.485Z,99.99
2022-08-27T04:42:07.106Z,99.99
2022-08-27T04:43:08.297Z,99.99
2022-08-27T04:44:08.607Z,99.99
2022-08-27T04:45:09.112Z,99.99
2022-08-27T04:46:09.406Z,99.99
2022-08-27T04:47:10.075Z,99.99
2022-08-27T04:48:10.827Z,99.99
2022-08-27T04:49:16.021Z,99.99
2022-08-27T04:50:13.452Z,99.99
2022-08-27T04:51:12.499Z,99.99
2022-08-27T04:52:12.957Z,99.99
2022-08-27T04:53:14.433Z,99.99
2022-08-27T04:54:14.563Z,99.99
2022-08-27T04:55:15.072Z,99.99
2022-08-27T04:56:19.705Z,99.99
2022-08-27T04:57:16.197Z,99.99
2022-08-27T04:58:16.658Z,99.99
2022-08-27T04:59:17.638Z,99.99
2022-08-27T05:00:17.551Z,99.99
2022-08-27T05:01:18.194Z,99.99
2022-08-27T05:02:18.965Z,99.99
2022-08-27T05:03:19.348Z,99.99
2022-08-27T05:04:19.380Z,99.99
2022-08-27T05:05:21.742Z,99.99
2022-08-27T05:06:21.238Z,99.99
2022-08-27T05:07:21.729Z,99.99
2022-08-27T05:08:21.922Z,99.99
2022-08-27T05:09:24.435Z,99.99
2022-08-27T05:10:23.674Z,99.99
2022-08-27T05:11:23.877Z,99.99
2022-08-27T05:12:24.489Z,99.99
2022-08-27T05:13:25.707Z,99.99
2022-08-27T05:14:25.997Z,99.99
2022-08-27T05:15:25.911Z,99.99
2022-08-27T05:16:27.026Z,99.99
2022-08-27T05:17:28.247Z,99.99
2022-08-27T05:18:28.402Z,99.99
2022-08-27T05:19:29.017Z,99.99
2022-08-27T05:20:29.638Z,99.99
2022-08-27T05:21:29.826Z,99.99
2022-08-27T05:22:30.313Z,99.99
2022-08-27T05:23:31.235Z,99.99
2022-08-27T05:24:31.831Z,99.99
2022-08-27T05:25:32.800Z,99.99
2022-08-27T05:26:33.699Z,99.99
2022-08-27T05:27:34.198Z,99.99
2022-08-27T05:28:34.689Z,99.99
2022-08-27T05:29:35.179Z,99.99
2022-08-27T05:30:35.451Z,99.99
2022-08-27T05:31:36.009Z,99.99
2022-08-27T05:32:37.040Z,99.99
2022-08-27T05:33:37.234Z,99.99
2022-08-27T05:34:37.447Z,99.99
2022-08-27T05:35:37.943Z,99.99
2022-08-27T05:36:37.845Z,99.99
2022-08-27T05:37:39.047Z,99.99
2022-08-27T05:38:38.939Z,99.99
2022-08-27T05:39:40.159Z,99.99
2022-08-27T05:40:40.480Z,99.99
2022-08-27T05:41:41.124Z,99.99
2022-08-27T05:42:42.045Z,99.99
2022-08-27T05:43:45.464Z,99.99
2022-08-27T05:44:53.588Z,99.99
2022-08-27T05:45:54.506Z,99.99
2022-08-27T05:46:54.865Z,99.99
2022-08-27T05:47:55.791Z,99.99
2022-08-27T05:48:55.800Z,99.99
2022-08-27T05:49:56.722Z,99.99
2022-08-27T05:50:57.916Z,99.99
2022-08-27T05:51:57.823Z,99.99
2022-08-27T05:52:58.770Z,99.99
2022-08-27T05:53:59.716Z,99.99
2022-08-27T05:55:00.116Z,99.99
2022-08-27T05:56:01.061Z,99.99
2022-08-27T05:57:02.077Z,99.99
2022-08-27T05:58:03.026Z,99.99
2022-08-27T05:59:04.759Z,99.99
2022-08-27T06:00:03.662Z,99.99
2022-08-27T06:01:10.392Z,99.99
2022-08-27T06:02:05.787Z,99.99
2022-08-27T06:03:06.428Z,99.99
2022-08-27T06:04:06.374Z,99.99
2022-08-27T06:05:06.998Z,99.99
2022-08-27T06:06:07.113Z,99.99
2022-08-27T06:07:08.044Z,99.99
2022-08-27T06:08:09.041Z,99.99
2022-08-27T06:09:09.450Z,99.99
2022-08-27T06:10:09.945Z,99.99
2022-08-27T06:11:09.847Z,99.99
2022-08-27T06:12:10.711Z,99.99
2022-08-27T06:13:11.195Z,99.99
2022-08-27T06:14:12.091Z,99.99
2022-08-27T06:15:13.091Z,99.99
2022-08-27T06:16:13.358Z,99.99
2022-08-27T06:17:14.035Z,99.99
2022-08-27T06:18:14.316Z,99.99
2022-08-27T06:19:14.520Z,99.99
2022-08-27T06:20:15.440Z,99.99
2022-08-27T06:21:15.734Z,99.99
2022-08-27T06:22:16.255Z,99.99
2022-08-27T06:23:16.458Z,99.99
2022-08-27T06:24:17.493Z,99.99
2022-08-27T06:25:18.221Z,99.99
2022-08-27T06:26:18.842Z,99.99
2022-08-27T06:27:19.773Z,99.99
2022-08-27T06:28:19.989Z,99.99
2022-08-27T06:29:20.488Z,99.99
2022-08-27T06:30:23.212Z,99.99
2022-08-27T06:31:22.572Z,99.99
2022-08-27T06:32:23.131Z,99.99
2022-08-27T06:33:23.703Z,99.99
2022-08-27T06:34:23.902Z,99.99
2022-08-27T06:35:25.076Z,99.99
2022-08-27T06:36:25.561Z,99.99
2022-08-27T06:37:25.385Z,99.99
2022-08-27T06:38:26.601Z,99.99
2022-08-27T06:39:27.528Z,99.99
2022-08-27T06:40:28.707Z,99.99
2022-08-27T06:41:29.605Z,99.99
2022-08-27T06:42:29.808Z,99.99
2022-08-27T06:43:30.555Z,99.99
2022-08-27T06:44:31.757Z,99.99
2022-08-27T06:45:31.748Z,99.99
2022-08-27T06:46:32.533Z,99.99
2022-08-27T06:47:32.521Z,99.99
2022-08-27T06:48:33.145Z,99.99
2022-08-27T06:49:33.642Z,99.99
2022-08-27T06:50:34.479Z,99.99
2022-08-27T06:51:34.982Z,99.99
2022-08-27T06:52:35.888Z,99.99
2022-08-27T06:53:36.086Z,99.99
2022-08-27T06:54:37.145Z,99.99
2022-08-27T06:55:42.280Z,99.99
2022-08-27T06:56:37.219Z,99.99
2022-08-27T06:57:37.863Z,99.99
2022-08-27T06:58:38.785Z,99.99
2022-08-27T06:59:39.945Z,99.99
2022-08-27T07:00:39.806Z,99.99
2022-08-27T07:01:40.625Z,99.99
2022-08-27T07:02:41.113Z,99.99
2022-08-27T07:03:41.793Z,99.99
2022-08-27T07:04:41.954Z,99.99
2022-08-27T07:05:42.377Z,99.99
2022-08-27T07:06:43.296Z,99.99
2022-08-27T07:07:50.895Z,99.99
2022-08-27T07:08:44.115Z,99.99
2022-08-27T07:09:44.374Z,99.99
2022-08-27T07:10:44.598Z,99.99
2022-08-27T07:11:45.086Z,99.99
2022-08-27T07:12:45.727Z,99.99
2022-08-27T07:13:46.371Z,99.99
2022-08-27T07:14:49.400Z,99.99
2022-08-27T07:15:48.289Z,99.99
2022-08-27T07:16:50.790Z,99.99
2022-08-27T07:17:49.997Z,99.99
2022-08-27T07:18:50.669Z,99.99
2022-08-27T07:19:50.776Z,99.99
2022-08-27T07:20:51.704Z,99.99
2022-08-27T07:21:52.529Z,99.99
2022-08-27T07:22:53.482Z,99.99
2022-08-27T07:23:53.285Z,99.99
2022-08-27T07:24:53.903Z,99.99
2022-08-27T07:25:53.920Z,99.99
2022-08-27T07:26:54.846Z,99.99
2022-08-27T07:27:55.058Z,99.99
2022-08-27T07:28:55.919Z,99.99
2022-08-27T07:29:56.565Z,99.99
2022-08-27T07:30:56.846Z,99.99
2022-08-27T07:31:57.257Z,99.99
2022-08-27T07:32:58.200Z,99.99
2022-08-27T07:33:58.823Z,99.99
2022-08-27T07:34:59.874Z,99.99
2022-08-27T07:36:00.882Z,99.99
2022-08-27T07:37:01.793Z,99.99
2022-08-27T07:38:02.719Z,99.99
2022-08-27T07:39:06.576Z,99.99
2022-08-27T07:40:04.012Z,99.99
2022-08-27T07:41:04.284Z,99.99
2022-08-27T07:42:04.283Z,99.99
2022-08-27T07:43:05.186Z,99.99
2022-08-27T07:44:06.412Z,99.99
2022-08-27T07:45:06.634Z,99.99
2022-08-27T07:46:07.410Z,99.99
2022-08-27T07:47:07.733Z,99.99
2022-08-27T07:48:09.283Z,99.99
2022-08-27T07:49:09.523Z,99.99
2022-08-27T07:50:10.451Z,99.99
2022-08-27T07:51:11.470Z,99.99
2022-08-27T07:52:12.382Z,99.99
2022-08-27T07:53:13.481Z,99.99
2022-08-27T07:54:13.609Z,99.99
2022-08-27T07:55:14.390Z,99.99
2022-08-27T07:57:15.738Z,99.99
2022-08-27T07:58:18.718Z,99.99
2022-08-27T07:59:16.465Z,99.99
2022-08-27T08:00:16.417Z,99.99
2022-08-27T08:01:16.786Z,99.99
2022-08-27T08:02:17.443Z,99.99
2022-08-27T08:03:18.038Z,99.99
2022-08-27T08:04:25.137Z,99.99
2022-08-27T08:05:19.638Z,99.99
2022-08-27T08:06:20.358Z,99.99
2022-08-27T08:07:21.277Z,99.99
2022-08-27T08:08:22.916Z,99.99
2022-08-27T08:09:22.353Z,99.99
2022-08-27T08:14:25.454Z,99.99
2022-08-27T08:15:26.661Z,99.99
2022-08-27T08:16:31.538Z,99.99
2022-08-27T08:17:27.781Z,99.99
2022-08-27T08:18:28.128Z,99.99
2022-08-27T08:19:28.352Z,99.99
2022-08-27T08:20:59.503Z,99.99
2022-08-27T08:21:29.633Z,99.99
2022-08-27T08:22:29.835Z,99.99
2022-08-27T08:23:30.034Z,99.99
2022-08-27T08:24:29.945Z,99.99
2022-08-27T08:25:32.768Z,99.99
2022-08-27T08:26:31.418Z,99.99
2022-08-27T08:27:32.094Z,99.99
2022-08-27T08:28:32.732Z,99.99
2022-08-27T08:29:33.953Z,99.99
2022-08-27T08:30:40.837Z,99.99
2022-08-27T08:31:34.520Z,99.99
2022-08-27T08:32:35.189Z,99.99
2022-08-27T08:33:35.838Z,99.99
2022-08-27T08:34:36.797Z,99.99
2022-08-27T08:35:46.332Z,99.99
2022-08-27T08:36:38.794Z,99.99
2022-08-27T08:37:39.182Z,99.99
2022-08-27T08:38:39.582Z,99.99
2022-08-27T08:39:39.488Z,99.99
2022-08-27T08:40:40.212Z,99.99
2022-08-27T08:41:40.417Z,99.99
2022-08-27T08:42:41.059Z,99.99
2022-08-27T08:43:41.516Z,99.99
2022-08-27T08:44:42.814Z,99.99
2022-08-27T08:45:43.506Z,99.99
2022-08-27T08:48:48.205Z,99.99
2022-08-27T08:49:45.827Z,99.99
2022-08-27T08:50:46.762Z,99.99
2022-08-27T08:51:46.666Z,99.99
2022-08-27T08:52:47.866Z,99.99
2022-08-27T08:53:48.476Z,99.99
2022-08-27T08:54:49.682Z,99.99
2022-08-27T08:55:50.145Z,99.99
2022-08-27T08:56:54.423Z,99.99
2022-08-27T08:57:51.126Z,99.99
2022-08-27T09:06:56.889Z,99.99
2022-08-27T09:08:09.879Z,99.99
2022-08-27T09:11:03.937Z,99.99
2022-08-27T09:12:04.648Z,99.99
2022-08-27T09:13:05.554Z,99.99
2022-08-27T09:14:09.313Z,99.99
2022-08-27T09:15:07.180Z,99.99
2022-08-27T09:16:07.635Z,99.99
2022-08-27T09:17:12.661Z,99.99
2022-08-27T09:18:11.100Z,99.99
2022-08-27T09:19:13.136Z,99.99
2022-08-27T09:20:13.130Z,99.99
2022-08-27T09:21:15.219Z,99.99
2022-08-27T09:22:10.563Z,99.99
2022-08-27T09:23:11.204Z,99.99
2022-08-27T09:24:11.838Z,99.99
2022-08-27T09:25:12.123Z,99.99
2022-08-27T09:26:12.462Z,99.99
2022-08-27T09:27:13.393Z,99.99
2022-08-27T09:28:14.112Z,99.99
2022-08-27T09:30:15.754Z,99.99
2022-08-27T09:33:16.730Z,99.99
2022-08-27T09:35:18.076Z,99.99
2022-08-27T09:36:23.528Z,99.99
2022-08-27T09:37:19.971Z,99.99
2022-08-27T09:38:20.120Z,99.99
2022-08-27T09:39:20.342Z,99.99
2022-08-27T09:40:28.319Z,99.99
2022-08-27T09:41:21.358Z,99.99
2022-08-27T09:42:21.656Z,99.99
2022-08-27T09:43:21.586Z,99.99
2022-08-27T09:44:22.214Z,99.99
2022-08-27T09:45:22.716Z,99.99
2022-08-27T09:46:24.265Z,99.99
2022-08-27T09:47:23.821Z,99.99
2022-08-27T09:48:24.290Z,99.99
2022-08-27T09:49:25.216Z,99.99
2022-08-27T09:50:25.841Z,99.99
2022-08-27T09:51:27.562Z,99.99
2022-08-27T09:52:27.337Z,99.99
2022-08-27T09:53:28.262Z,99.99
2022-08-27T09:54:28.916Z,99.99
2022-08-27T09:55:30.990Z,99.99
2022-08-27T09:56:30.403Z,99.99
2022-08-27T09:57:36.136Z,99.99
2022-08-27T09:58:31.641Z,99.99
2022-08-27T09:59:32.577Z,99.99
2022-08-27T10:00:32.804Z,99.99
2022-08-27T10:01:33.978Z,99.41
2022-08-27T10:02:33.990Z,99.8
2022-08-27T10:03:38.727Z,98.1
2022-08-27T10:04:34.996Z,96.75
2022-08-27T10:05:35.713Z,95.92
2022-08-27T10:06:36.347Z,94.32
2022-08-27T10:07:37.264Z,94.23
2022-08-27T10:08:37.895Z,92.58
2022-08-27T10:09:39.098Z,91.61
2022-08-27T10:10:40.665Z,91.41
2022-08-27T10:11:40.503Z,91.22
2022-08-27T10:12:40.990Z,90.16
2022-08-27T10:13:41.220Z,91.02
2022-08-27T10:14:41.149Z,90.25
2022-08-27T10:15:49.683Z,91.61
2022-08-27T10:16:42.747Z,91.56
2022-08-27T10:17:42.662Z,91.27
2022-08-27T10:18:43.162Z,90.11
2022-08-27T10:19:43.797Z,90.45
2022-08-27T10:20:44.703Z,91.52
2022-08-27T10:21:45.373Z,93.55
2022-08-27T10:22:46.062Z,94.86
2022-08-27T10:23:46.432Z,90.5
2022-08-27T10:24:46.939Z,90.56
2022-08-27T10:25:46.870Z,91.91
2022-08-27T10:26:47.074Z,92.34
2022-08-27T10:27:47.732Z,95.2
2022-08-27T10:28:49.477Z,89.87
2022-08-27T10:29:49.710Z,86.91
2022-08-27T10:30:50.439Z,85.55
2022-08-27T10:31:50.476Z,88.17
2022-08-27T10:32:57.605Z,88.46
2022-08-27T10:33:52.034Z,85.79
2022-08-27T10:34:52.239Z,83.27
2022-08-27T10:36:00.053Z,84.34
2022-08-27T10:36:54.388Z,85.99
2022-08-27T10:37:53.858Z,86.37
2022-08-27T10:38:54.085Z,85.21
2022-08-27T10:39:55.047Z,84.34
2022-08-27T10:40:54.882Z,85.46
2022-08-27T10:41:56.091Z,86.82
2022-08-27T10:43:02.975Z,88.85
2022-08-27T10:43:56.898Z,87.98
2022-08-27T10:44:57.829Z,85.85
2022-08-27T10:45:57.843Z,85.07
2022-08-27T10:46:58.012Z,86
2022-08-27T10:47:58.924Z,88.81
2022-08-27T10:48:59.098Z,92.97
2022-08-27T10:50:00.369Z,93.45
2022-08-27T10:51:00.997Z,93.16
2022-08-27T10:52:04.190Z,90.3
2022-08-27T10:53:02.306Z,89.57
2022-08-27T10:54:03.212Z,87.73
2022-08-27T10:55:06.777Z,87.54
2022-08-27T10:56:03.658Z,89.82
2022-08-27T10:57:45.692Z,92.29
2022-08-27T10:58:18.468Z,91.56
2022-08-27T10:59:18.983Z,92.2
2022-08-27T11:00:19.321Z,93.55
2022-08-27T11:01:20.125Z,93.36
2022-08-27T11:02:20.506Z,93.55
2022-08-27T11:03:22.039Z,92.3
2022-08-27T11:04:20.942Z,94.04
2022-08-27T11:05:22.149Z,95.49
2022-08-27T11:06:22.624Z,96.55
2022-08-27T11:07:23.587Z,95.49
2022-08-27T11:08:24.216Z,96.89
2022-08-27T11:09:25.134Z,98.44
2022-08-27T11:10:26.637Z,96.12
2022-08-27T11:12:16.098Z,94.67
2022-08-27T11:12:33.442Z,93.79
2022-08-27T11:13:33.503Z,94.47
2022-08-27T11:14:34.203Z,95.49
2022-08-27T11:15:34.411Z,93.65
2022-08-27T11:16:34.738Z,91.81
2022-08-27T11:17:37.901Z,90.84
2022-08-27T11:18:35.530Z,91.56
2022-08-27T11:19:36.107Z,90.16
2022-08-27T11:20:36.321Z,90.26
2022-08-27T11:21:36.528Z,88.81
2022-08-27T11:22:37.894Z,90.45
2022-08-27T11:23:38.198Z,93.74
2022-08-27T11:24:40.459Z,91.32
2022-08-27T11:25:39.797Z,90.16
2022-08-27T11:26:40.427Z,89
2022-08-27T11:27:41.656Z,87.54
2022-08-27T11:28:41.594Z,87.84
2022-08-27T11:29:42.245Z,88.85
2022-08-27T11:30:43.170Z,88.27
2022-08-27T11:31:44.095Z,87.4
2022-08-27T11:32:45.114Z,88.03
2022-08-27T11:33:51.292Z,90.26
2022-08-27T11:34:46.246Z,91.22
2022-08-27T11:35:46.178Z,91.22
2022-08-27T11:36:47.579Z,91.13
2022-08-27T11:37:47.555Z,90.26
2022-08-27T11:38:47.782Z,89.87
2022-08-27T11:39:51.642Z,90.16
2022-08-27T11:40:48.955Z,89.77
2022-08-27T11:41:51.052Z,88.71
2022-08-27T11:42:50.259Z,89.87
2022-08-27T11:43:50.669Z,90.8
2022-08-27T11:44:51.597Z,90.89
2022-08-27T11:45:53.955Z,92.58
2022-08-27T11:46:52.177Z,92.58
2022-08-27T11:47:52.863Z,93.17
2022-08-27T11:48:59.272Z,91.91
2022-08-27T11:49:54.578Z,93.26
2022-08-27T11:50:54.626Z,93.32
2022-08-27T11:51:55.576Z,93.17
2022-08-27T11:52:55.776Z,92.93
2022-08-27T11:53:58.986Z,92.2
2022-08-27T11:54:59.647Z,91.62
2022-08-27T11:56:00.553Z,92.4
2022-08-27T11:57:01.488Z,94.71
2022-08-27T11:58:02.419Z,93.65
2022-08-27T11:59:02.758Z,92.83
2022-08-27T12:00:02.704Z,91.28
2022-08-27T12:01:09.212Z,91.18
2022-08-27T12:02:04.452Z,89.63
2022-08-27T12:03:04.477Z,90.12
2022-08-27T12:05:05.719Z,89.01
2022-08-27T12:06:06.924Z,90.36
2022-08-27T12:07:07.575Z,90.12
2022-08-27T12:08:07.931Z,91.24
2022-08-27T12:09:08.495Z,91.24
2022-08-27T12:10:09.465Z,90.56
2022-08-27T12:11:09.849Z,88.37
2022-08-27T12:12:09.958Z,88.09
2022-08-27T12:13:11.167Z,87.65
2022-08-27T12:14:11.462Z,87.95
2022-08-27T12:15:11.639Z,87.95
2022-08-27T12:16:12.055Z,87.46
2022-08-27T12:17:12.452Z,88.13
2022-08-27T12:18:13.470Z,88.43
2022-08-27T12:19:13.713Z,89.49
2022-08-27T12:20:13.660Z,91.24
2022-08-27T12:21:14.866Z,92.4
2022-08-27T12:22:15.615Z,91.72
2022-08-27T12:23:16.235Z,90.07
2022-08-27T12:24:16.970Z,87.46
2022-08-27T12:25:16.880Z,86.69
2022-08-27T12:26:17.797Z,86.69
2022-08-27T12:27:18.027Z,86.05
2022-08-27T12:28:18.678Z,85.37
2022-08-27T12:29:19.104Z,86.09
2022-08-27T12:30:18.968Z,85.13
2022-08-27T12:31:19.301Z,85.75
2022-08-27T12:32:19.854Z,86.13
2022-08-27T12:33:20.791Z,85.11
2022-08-27T12:34:24.505Z,83.07
2022-08-27T12:35:23.245Z,81.66
2022-08-27T12:36:33.399Z,80.01
2022-08-27T12:37:24.084Z,80.73
2022-08-27T12:38:24.986Z,78.89
2022-08-27T12:39:25.326Z,77.72
2022-08-27T12:40:29.913Z,77.34
2022-08-27T12:41:26.065Z,76.42
2022-08-27T12:42:27.143Z,78.91
2022-08-27T12:43:27.350Z,79.35
2022-08-27T12:44:27.631Z,80.19
2022-08-27T12:45:28.541Z,80.09
2022-08-27T12:46:34.046Z,79.22
2022-08-27T12:47:29.579Z,80.63
2022-08-27T12:48:29.741Z,83.15
2022-08-27T12:49:44.731Z,83.59
2022-08-27T12:50:31.334Z,85.52
2022-08-27T12:51:31.542Z,83.49
2022-08-27T12:52:32.487Z,85.52
2022-08-27T12:53:32.984Z,84.17
2022-08-27T12:54:35.786Z,85.66
2022-08-27T12:55:34.285Z,83.73
2022-08-27T12:56:34.997Z,83.05
2022-08-27T12:57:34.916Z,82.9
2022-08-27T12:58:35.572Z,81.05
2022-08-27T12:59:36.360Z,79.55
2022-08-27T13:00:37.439Z,80.71
2022-08-27T13:01:43.073Z,79.64
2022-08-27T13:02:38.728Z,79.16
2022-08-27T13:03:39.226Z,79.55
2022-08-27T13:04:39.492Z,80.28
2022-08-27T13:05:40.148Z,79.74
2022-08-27T13:06:40.349Z,80.57
2022-08-27T13:07:43.494Z,83.28
2022-08-27T13:08:41.126Z,83.86
2022-08-27T13:09:41.820Z,81.35
2022-08-27T13:10:42.094Z,83.18
2022-08-27T13:11:42.597Z,85.22
2022-08-27T13:12:42.802Z,85.8
2022-08-27T13:13:42.736Z,84.06
2022-08-27T13:14:43.709Z,84.55
2022-08-27T13:15:44.485Z,83.38
2022-08-27T13:16:45.754Z,84.1
2022-08-27T13:17:46.030Z,84.88
2022-08-27T13:18:46.880Z,84.78
2022-08-27T13:19:48.086Z,84.39
2022-08-27T13:20:58.501Z,87.59
2022-08-27T13:21:48.707Z,86.72
2022-08-27T13:22:49.339Z,83.91
2022-08-27T13:23:50.572Z,84.97
2022-08-27T13:24:50.972Z,82.65
2022-08-27T13:25:51.892Z,82.75
2022-08-27T13:26:52.645Z,83.27
2022-08-27T13:27:52.576Z,85.11
2022-08-27T13:28:53.779Z,83.27